sensor_id;sensor_type;location;lat;lon;timestamp;P1;durP1;ratioP1;P2;durP2;ratioP2
55270;SDS011;41132;47.162;9.470;2023-07-30T00:00:34;6.65;;;1.88;;
55270;SDS011;41132;47.162;9.470;2023-07-30T00:02:59;5.35;;;1.70;;
55270;SDS011;41132;47.162;9.470;2023-07-30T00:05:24;5.15;;;1.80;;
55270;SDS011;41132;47.162;9.470;2023-07-30T00:07:50;4.07;;;2.00;;
55270;SDS011;41132;47.162;9.470;2023-07-30T00:10:15;3.95;;;1.50;;
55270;SDS011;41132;47.162;9.470;2023-07-30T00:12:42;5.00;;;1.80;;
55270;SDS011;41132;47.162;9.470;2023-07-30T00:15:07;3.22;;;1.50;;
55270;SDS011;41132;47.162;9.470;2023-07-30T00:17:33;4.10;;;1.48;;
55270;SDS011;41132;47.162;9.470;2023-07-30T00:19:58;4.45;;;1.85;;
55270;SDS011;41132;47.162;9.470;2023-07-30T00:22:24;4.93;;;2.00;;
55270;SDS011;41132;47.162;9.470;2023-07-30T00:24:49;4.03;;;1.58;;
55270;SDS011;41132;47.162;9.470;2023-07-30T00:27:14;6.35;;;2.00;;
55270;SDS011;41132;47.162;9.470;2023-07-30T00:29:40;4.50;;;2.10;;
55270;SDS011;41132;47.162;9.470;2023-07-30T00:32:05;6.53;;;2.00;;
55270;SDS011;41132;47.162;9.470;2023-07-30T00:34:31;5.65;;;1.90;;
55270;SDS011;41132;47.162;9.470;2023-07-30T00:36:56;4.57;;;1.92;;
55270;SDS011;41132;47.162;9.470;2023-07-30T00:39:21;4.30;;;1.90;;
55270;SDS011;41132;47.162;9.470;2023-07-30T00:41:47;5.55;;;1.85;;
55270;SDS011;41132;47.162;9.470;2023-07-30T00:44:12;4.85;;;1.83;;
55270;SDS011;41132;47.162;9.470;2023-07-30T00:46:38;6.10;;;2.05;;
55270;SDS011;41132;47.162;9.470;2023-07-30T00:49:03;5.15;;;2.20;;
55270;SDS011;41132;47.162;9.470;2023-07-30T00:51:29;4.75;;;2.28;;
55270;SDS011;41132;47.162;9.470;2023-07-30T00:53:58;4.70;;;2.10;;
55270;SDS011;41132;47.162;9.470;2023-07-30T00:56:23;5.18;;;2.20;;
55270;SDS011;41132;47.162;9.470;2023-07-30T00:58:49;4.55;;;1.90;;
55270;SDS011;41132;47.162;9.470;2023-07-30T01:01:15;4.90;;;2.00;;
55270;SDS011;41132;47.162;9.470;2023-07-30T01:03:41;4.18;;;1.80;;
55270;SDS011;41132;47.162;9.470;2023-07-30T01:06:06;4.90;;;2.00;;
55270;SDS011;41132;47.162;9.470;2023-07-30T01:08:32;6.35;;;1.83;;
55270;SDS011;41132;47.162;9.470;2023-07-30T01:10:57;4.80;;;1.70;;
55270;SDS011;41132;47.162;9.470;2023-07-30T01:13:23;5.97;;;2.22;;
55270;SDS011;41132;47.162;9.470;2023-07-30T01:15:49;6.38;;;1.90;;
55270;SDS011;41132;47.162;9.470;2023-07-30T01:18:15;3.88;;;1.70;;
55270;SDS011;41132;47.162;9.470;2023-07-30T01:20:41;4.10;;;1.60;;
55270;SDS011;41132;47.162;9.470;2023-07-30T01:23:06;13.68;;;2.13;;
55270;SDS011;41132;47.162;9.470;2023-07-30T01:25:33;3.95;;;1.75;;
55270;SDS011;41132;47.162;9.470;2023-07-30T01:28:01;4.82;;;1.80;;
55270;SDS011;41132;47.162;9.470;2023-07-30T01:30:38;4.75;;;1.75;;
55270;SDS011;41132;47.162;9.470;2023-07-30T01:33:06;4.80;;;1.88;;
55270;SDS011;41132;47.162;9.470;2023-07-30T01:35:35;6.18;;;1.80;;
55270;SDS011;41132;47.162;9.470;2023-07-30T01:38:02;4.50;;;1.80;;
55270;SDS011;41132;47.162;9.470;2023-07-30T01:40:30;4.03;;;1.85;;
55270;SDS011;41132;47.162;9.470;2023-07-30T01:42:58;6.13;;;2.05;;
55270;SDS011;41132;47.162;9.470;2023-07-30T01:45:24;5.18;;;1.65;;
55270;SDS011;41132;47.162;9.470;2023-07-30T01:47:49;5.28;;;1.70;;
55270;SDS011;41132;47.162;9.470;2023-07-30T01:50:14;3.85;;;1.80;;
55270;SDS011;41132;47.162;9.470;2023-07-30T01:52:40;5.40;;;1.80;;
55270;SDS011;41132;47.162;9.470;2023-07-30T01:55:05;7.70;;;2.08;;
55270;SDS011;41132;47.162;9.470;2023-07-30T01:57:31;5.00;;;2.10;;
55270;SDS011;41132;47.162;9.470;2023-07-30T01:59:57;4.70;;;2.10;;
55270;SDS011;41132;47.162;9.470;2023-07-30T02:02:22;4.57;;;1.88;;
55270;SDS011;41132;47.162;9.470;2023-07-30T02:04:47;4.18;;;2.03;;
55270;SDS011;41132;47.162;9.470;2023-07-30T02:07:13;5.30;;;2.20;;
55270;SDS011;41132;47.162;9.470;2023-07-30T02:09:38;5.32;;;2.50;;
55270;SDS011;41132;47.162;9.470;2023-07-30T02:12:03;4.30;;;2.05;;
55270;SDS011;41132;47.162;9.470;2023-07-30T02:14:29;6.20;;;2.08;;
55270;SDS011;41132;47.162;9.470;2023-07-30T02:16:54;4.28;;;2.13;;
55270;SDS011;41132;47.162;9.470;2023-07-30T02:19:20;6.97;;;2.03;;
55270;SDS011;41132;47.162;9.470;2023-07-30T02:21:45;4.90;;;2.38;;
55270;SDS011;41132;47.162;9.470;2023-07-30T02:24:11;6.53;;;2.47;;
55270;SDS011;41132;47.162;9.470;2023-07-30T02:26:40;7.85;;;2.00;;
55270;SDS011;41132;47.162;9.470;2023-07-30T02:29:05;5.10;;;2.47;;
55270;SDS011;41132;47.162;9.470;2023-07-30T02:31:31;6.45;;;2.05;;
55270;SDS011;41132;47.162;9.470;2023-07-30T02:33:56;3.85;;;1.95;;
55270;SDS011;41132;47.162;9.470;2023-07-30T02:36:21;4.65;;;2.03;;
55270;SDS011;41132;47.162;9.470;2023-07-30T02:38:47;6.30;;;1.95;;
55270;SDS011;41132;47.162;9.470;2023-07-30T02:41:12;4.63;;;1.88;;
55270;SDS011;41132;47.162;9.470;2023-07-30T02:43:38;5.40;;;2.00;;
55270;SDS011;41132;47.162;9.470;2023-07-30T02:46:03;4.10;;;1.83;;
55270;SDS011;41132;47.162;9.470;2023-07-30T02:48:29;4.82;;;2.03;;
55270;SDS011;41132;47.162;9.470;2023-07-30T02:50:55;7.32;;;2.38;;
55270;SDS011;41132;47.162;9.470;2023-07-30T02:53:20;5.07;;;1.95;;
55270;SDS011;41132;47.162;9.470;2023-07-30T02:55:45;3.95;;;2.00;;
55270;SDS011;41132;47.162;9.470;2023-07-30T02:58:11;6.53;;;2.10;;
55270;SDS011;41132;47.162;9.470;2023-07-30T03:00:36;4.68;;;2.10;;
55270;SDS011;41132;47.162;9.470;2023-07-30T03:03:01;4.90;;;2.10;;
55270;SDS011;41132;47.162;9.470;2023-07-30T03:05:27;4.78;;;1.90;;
55270;SDS011;41132;47.162;9.470;2023-07-30T03:07:52;6.07;;;2.03;;
55270;SDS011;41132;47.162;9.470;2023-07-30T03:10:18;4.88;;;2.22;;
55270;SDS011;41132;47.162;9.470;2023-07-30T03:12:43;4.50;;;1.95;;
55270;SDS011;41132;47.162;9.470;2023-07-30T03:15:09;5.82;;;2.20;;
55270;SDS011;41132;47.162;9.470;2023-07-30T03:17:34;3.92;;;1.70;;
55270;SDS011;41132;47.162;9.470;2023-07-30T03:20:00;4.63;;;2.13;;
55270;SDS011;41132;47.162;9.470;2023-07-30T03:22:25;4.50;;;1.90;;
55270;SDS011;41132;47.162;9.470;2023-07-30T03:24:50;5.60;;;2.25;;
55270;SDS011;41132;47.162;9.470;2023-07-30T03:27:16;4.25;;;1.90;;
55270;SDS011;41132;47.162;9.470;2023-07-30T03:29:41;5.45;;;1.92;;
55270;SDS011;41132;47.162;9.470;2023-07-30T03:32:07;4.43;;;1.60;;
55270;SDS011;41132;47.162;9.470;2023-07-30T03:34:32;5.53;;;2.08;;
55270;SDS011;41132;47.162;9.470;2023-07-30T03:36:58;4.45;;;2.03;;
55270;SDS011;41132;47.162;9.470;2023-07-30T03:39:25;5.22;;;2.20;;
55270;SDS011;41132;47.162;9.470;2023-07-30T03:41:50;4.55;;;2.03;;
55270;SDS011;41132;47.162;9.470;2023-07-30T03:44:16;6.35;;;1.92;;
55270;SDS011;41132;47.162;9.470;2023-07-30T03:46:41;5.90;;;2.15;;
55270;SDS011;41132;47.162;9.470;2023-07-30T03:49:06;5.60;;;2.13;;
55270;SDS011;41132;47.162;9.470;2023-07-30T03:51:32;4.90;;;1.80;;
55270;SDS011;41132;47.162;9.470;2023-07-30T03:53:57;4.45;;;2.17;;
55270;SDS011;41132;47.162;9.470;2023-07-30T03:56:23;6.05;;;2.30;;
55270;SDS011;41132;47.162;9.470;2023-07-30T03:58:48;8.07;;;2.20;;
55270;SDS011;41132;47.162;9.470;2023-07-30T04:01:14;4.85;;;2.10;;
55270;SDS011;41132;47.162;9.470;2023-07-30T04:03:39;5.00;;;2.10;;
55270;SDS011;41132;47.162;9.470;2023-07-30T04:06:04;4.90;;;2.17;;
55270;SDS011;41132;47.162;9.470;2023-07-30T04:08:30;3.70;;;1.77;;
55270;SDS011;41132;47.162;9.470;2023-07-30T04:10:55;4.72;;;2.10;;
55270;SDS011;41132;47.162;9.470;2023-07-30T04:13:20;4.00;;;1.83;;
55270;SDS011;41132;47.162;9.470;2023-07-30T04:15:47;6.07;;;1.80;;
55270;SDS011;41132;47.162;9.470;2023-07-30T04:18:13;7.53;;;2.00;;
55270;SDS011;41132;47.162;9.470;2023-07-30T04:20:38;3.78;;;1.73;;
55270;SDS011;41132;47.162;9.470;2023-07-30T04:23:03;4.20;;;2.00;;
55270;SDS011;41132;47.162;9.470;2023-07-30T04:25:29;8.30;;;2.25;;
55270;SDS011;41132;47.162;9.470;2023-07-30T04:27:54;6.50;;;2.20;;
55270;SDS011;41132;47.162;9.470;2023-07-30T04:30:19;7.05;;;1.95;;
55270;SDS011;41132;47.162;9.470;2023-07-30T04:32:45;5.18;;;2.38;;
55270;SDS011;41132;47.162;9.470;2023-07-30T04:35:10;5.13;;;1.98;;
55270;SDS011;41132;47.162;9.470;2023-07-30T04:37:36;5.15;;;2.15;;
55270;SDS011;41132;47.162;9.470;2023-07-30T04:40:01;7.15;;;2.33;;
55270;SDS011;41132;47.162;9.470;2023-07-30T04:42:27;4.40;;;2.03;;
55270;SDS011;41132;47.162;9.470;2023-07-30T04:44:52;5.97;;;2.05;;
55270;SDS011;41132;47.162;9.470;2023-07-30T04:47:18;5.70;;;1.92;;
55270;SDS011;41132;47.162;9.470;2023-07-30T04:49:43;4.80;;;2.08;;
55270;SDS011;41132;47.162;9.470;2023-07-30T04:52:08;5.25;;;1.92;;
55270;SDS011;41132;47.162;9.470;2023-07-30T04:54:35;3.88;;;1.90;;
55270;SDS011;41132;47.162;9.470;2023-07-30T04:57:03;5.18;;;2.35;;
55270;SDS011;41132;47.162;9.470;2023-07-30T04:59:29;5.63;;;2.20;;
55270;SDS011;41132;47.162;9.470;2023-07-30T05:01:54;3.70;;;1.73;;
55270;SDS011;41132;47.162;9.470;2023-07-30T05:04:20;8.65;;;2.17;;
55270;SDS011;41132;47.162;9.470;2023-07-30T05:06:45;4.28;;;2.05;;
55270;SDS011;41132;47.162;9.470;2023-07-30T05:09:10;4.78;;;2.30;;
55270;SDS011;41132;47.162;9.470;2023-07-30T05:11:37;5.93;;;2.38;;
55270;SDS011;41132;47.162;9.470;2023-07-30T05:14:03;6.40;;;2.30;;
55270;SDS011;41132;47.162;9.470;2023-07-30T05:16:28;5.20;;;2.30;;
55270;SDS011;41132;47.162;9.470;2023-07-30T05:18:54;5.45;;;2.60;;
55270;SDS011;41132;47.162;9.470;2023-07-30T05:21:20;5.00;;;2.53;;
55270;SDS011;41132;47.162;9.470;2023-07-30T05:23:45;6.40;;;2.67;;
55270;SDS011;41132;47.162;9.470;2023-07-30T05:26:10;5.63;;;2.50;;
55270;SDS011;41132;47.162;9.470;2023-07-30T05:28:36;4.70;;;2.45;;
55270;SDS011;41132;47.162;9.470;2023-07-30T05:31:01;5.20;;;2.67;;
55270;SDS011;41132;47.162;9.470;2023-07-30T05:33:26;5.70;;;3.10;;
55270;SDS011;41132;47.162;9.470;2023-07-30T05:35:52;6.57;;;2.97;;
55270;SDS011;41132;47.162;9.470;2023-07-30T05:38:17;5.35;;;3.00;;
55270;SDS011;41132;47.162;9.470;2023-07-30T05:40:42;9.65;;;3.17;;
55270;SDS011;41132;47.162;9.470;2023-07-30T05:43:08;6.82;;;2.85;;
55270;SDS011;41132;47.162;9.470;2023-07-30T05:45:33;5.50;;;3.08;;
55270;SDS011;41132;47.162;9.470;2023-07-30T05:47:59;5.20;;;2.60;;
55270;SDS011;41132;47.162;9.470;2023-07-30T05:50:24;4.93;;;2.72;;
55270;SDS011;41132;47.162;9.470;2023-07-30T05:52:50;5.13;;;2.58;;
55270;SDS011;41132;47.162;9.470;2023-07-30T05:55:15;5.32;;;2.70;;
55270;SDS011;41132;47.162;9.470;2023-07-30T05:57:40;4.70;;;2.30;;
55270;SDS011;41132;47.162;9.470;2023-07-30T06:00:06;5.60;;;3.10;;
55270;SDS011;41132;47.162;9.470;2023-07-30T06:02:32;5.53;;;2.60;;
55270;SDS011;41132;47.162;9.470;2023-07-30T06:04:57;6.22;;;2.90;;
55270;SDS011;41132;47.162;9.470;2023-07-30T06:07:22;6.75;;;2.72;;
55270;SDS011;41132;47.162;9.470;2023-07-30T06:09:48;5.22;;;2.70;;
55270;SDS011;41132;47.162;9.470;2023-07-30T06:12:13;5.32;;;2.60;;
55270;SDS011;41132;47.162;9.470;2023-07-30T06:14:39;5.07;;;2.70;;
55270;SDS011;41132;47.162;9.470;2023-07-30T06:17:04;5.32;;;2.50;;
55270;SDS011;41132;47.162;9.470;2023-07-30T06:19:29;6.22;;;2.90;;
55270;SDS011;41132;47.162;9.470;2023-07-30T06:21:55;5.57;;;2.58;;
55270;SDS011;41132;47.162;9.470;2023-07-30T06:24:20;5.15;;;2.28;;
55270;SDS011;41132;47.162;9.470;2023-07-30T06:26:46;4.80;;;2.38;;
55270;SDS011;41132;47.162;9.470;2023-07-30T06:29:11;7.32;;;2.83;;
55270;SDS011;41132;47.162;9.470;2023-07-30T06:31:36;4.68;;;2.58;;
55270;SDS011;41132;47.162;9.470;2023-07-30T06:34:02;5.25;;;2.38;;
55270;SDS011;41132;47.162;9.470;2023-07-30T06:36:27;4.72;;;2.08;;
55270;SDS011;41132;47.162;9.470;2023-07-30T06:38:52;5.30;;;2.30;;
55270;SDS011;41132;47.162;9.470;2023-07-30T06:41:20;5.15;;;2.70;;
55270;SDS011;41132;47.162;9.470;2023-07-30T06:43:46;5.50;;;2.55;;
55270;SDS011;41132;47.162;9.470;2023-07-30T06:46:11;5.40;;;2.28;;
55270;SDS011;41132;47.162;9.470;2023-07-30T06:48:37;4.28;;;1.98;;
55270;SDS011;41132;47.162;9.470;2023-07-30T06:51:05;4.45;;;2.22;;
55270;SDS011;41132;47.162;9.470;2023-07-30T06:53:32;8.45;;;2.45;;
55270;SDS011;41132;47.162;9.470;2023-07-30T06:55:57;4.65;;;2.30;;
55270;SDS011;41132;47.162;9.470;2023-07-30T06:58:23;4.95;;;2.25;;
55270;SDS011;41132;47.162;9.470;2023-07-30T07:00:48;5.25;;;2.58;;
55270;SDS011;41132;47.162;9.470;2023-07-30T07:03:14;5.30;;;2.47;;
55270;SDS011;41132;47.162;9.470;2023-07-30T07:05:39;5.28;;;2.60;;
55270;SDS011;41132;47.162;9.470;2023-07-30T07:08:04;5.10;;;2.75;;
55270;SDS011;41132;47.162;9.470;2023-07-30T07:10:30;6.43;;;2.78;;
55270;SDS011;41132;47.162;9.470;2023-07-30T07:12:56;5.47;;;2.67;;
55270;SDS011;41132;47.162;9.470;2023-07-30T07:15:21;5.38;;;2.60;;
55270;SDS011;41132;47.162;9.470;2023-07-30T07:17:47;4.63;;;2.13;;
55270;SDS011;41132;47.162;9.470;2023-07-30T07:20:12;5.22;;;2.33;;
55270;SDS011;41132;47.162;9.470;2023-07-30T07:22:37;5.35;;;2.25;;
55270;SDS011;41132;47.162;9.470;2023-07-30T07:25:03;5.07;;;2.63;;
55270;SDS011;41132;47.162;9.470;2023-07-30T07:27:28;4.97;;;2.33;;
55270;SDS011;41132;47.162;9.470;2023-07-30T07:29:54;6.63;;;2.60;;
55270;SDS011;41132;47.162;9.470;2023-07-30T07:32:19;4.65;;;2.22;;
55270;SDS011;41132;47.162;9.470;2023-07-30T07:34:45;6.03;;;2.35;;
55270;SDS011;41132;47.162;9.470;2023-07-30T07:37:13;5.15;;;2.20;;
55270;SDS011;41132;47.162;9.470;2023-07-30T07:39:40;4.43;;;2.03;;
55270;SDS011;41132;47.162;9.470;2023-07-30T07:42:06;4.18;;;2.13;;
55270;SDS011;41132;47.162;9.470;2023-07-30T07:44:31;5.18;;;2.28;;
55270;SDS011;41132;47.162;9.470;2023-07-30T07:46:57;5.30;;;2.38;;
55270;SDS011;41132;47.162;9.470;2023-07-30T07:49:22;4.68;;;2.50;;
55270;SDS011;41132;47.162;9.470;2023-07-30T07:51:47;4.50;;;1.80;;
55270;SDS011;41132;47.162;9.470;2023-07-30T07:54:13;7.07;;;2.38;;
55270;SDS011;41132;47.162;9.470;2023-07-30T07:56:38;4.50;;;2.13;;
55270;SDS011;41132;47.162;9.470;2023-07-30T07:59:04;4.60;;;2.00;;
55270;SDS011;41132;47.162;9.470;2023-07-30T08:01:29;5.07;;;2.28;;
55270;SDS011;41132;47.162;9.470;2023-07-30T08:03:55;5.18;;;2.40;;
55270;SDS011;41132;47.162;9.470;2023-07-30T08:06:20;4.20;;;2.13;;
55270;SDS011;41132;47.162;9.470;2023-07-30T08:08:45;5.05;;;2.00;;
55270;SDS011;41132;47.162;9.470;2023-07-30T08:11:11;4.32;;;2.00;;
55270;SDS011;41132;47.162;9.470;2023-07-30T08:13:36;4.63;;;2.13;;
55270;SDS011;41132;47.162;9.470;2023-07-30T08:16:02;5.15;;;2.20;;
55270;SDS011;41132;47.162;9.470;2023-07-30T08:18:27;4.55;;;2.10;;
55270;SDS011;41132;47.162;9.470;2023-07-30T08:20:53;6.00;;;2.00;;
55270;SDS011;41132;47.162;9.470;2023-07-30T08:23:18;4.60;;;1.90;;
55270;SDS011;41132;47.162;9.470;2023-07-30T08:25:44;5.05;;;2.55;;
55270;SDS011;41132;47.162;9.470;2023-07-30T08:28:15;4.60;;;2.10;;
55270;SDS011;41132;47.162;9.470;2023-07-30T08:30:41;4.65;;;2.28;;
55270;SDS011;41132;47.162;9.470;2023-07-30T08:33:06;4.93;;;2.53;;
55270;SDS011;41132;47.162;9.470;2023-07-30T08:35:32;4.75;;;2.28;;
55270;SDS011;41132;47.162;9.470;2023-07-30T08:37:57;4.80;;;2.35;;
55270;SDS011;41132;47.162;9.470;2023-07-30T08:40:22;5.72;;;3.08;;
55270;SDS011;41132;47.162;9.470;2023-07-30T08:42:50;6.53;;;2.60;;
55270;SDS011;41132;47.162;9.470;2023-07-30T08:45:16;4.15;;;1.90;;
55270;SDS011;41132;47.162;9.470;2023-07-30T08:47:42;4.78;;;2.08;;
55270;SDS011;41132;47.162;9.470;2023-07-30T08:50:07;4.03;;;1.90;;
55270;SDS011;41132;47.162;9.470;2023-07-30T08:52:33;4.30;;;1.88;;
55270;SDS011;41132;47.162;9.470;2023-07-30T08:55:01;4.50;;;1.90;;
55270;SDS011;41132;47.162;9.470;2023-07-30T08:57:28;4.18;;;1.63;;
55270;SDS011;41132;47.162;9.470;2023-07-30T08:59:54;4.05;;;1.65;;
55270;SDS011;41132;47.162;9.470;2023-07-30T09:02:41;4.07;;;1.77;;
55270;SDS011;41132;47.162;9.470;2023-07-30T09:05:11;3.90;;;1.70;;
55270;SDS011;41132;47.162;9.470;2023-07-30T09:07:36;3.55;;;1.63;;
55270;SDS011;41132;47.162;9.470;2023-07-30T09:10:02;4.60;;;1.77;;
55270;SDS011;41132;47.162;9.470;2023-07-30T09:12:31;4.20;;;1.90;;
55270;SDS011;41132;47.162;9.470;2023-07-30T09:14:58;5.05;;;1.80;;
55270;SDS011;41132;47.162;9.470;2023-07-30T09:17:25;4.30;;;1.73;;
55270;SDS011;41132;47.162;9.470;2023-07-30T09:19:51;3.42;;;1.52;;
55270;SDS011;41132;47.162;9.470;2023-07-30T09:22:27;3.83;;;1.65;;
55270;SDS011;41132;47.162;9.470;2023-07-30T09:24:53;3.70;;;1.63;;
55270;SDS011;41132;47.162;9.470;2023-07-30T09:27:23;3.83;;;1.73;;
55270;SDS011;41132;47.162;9.470;2023-07-30T09:29:58;4.18;;;2.03;;
55270;SDS011;41132;47.162;9.470;2023-07-30T09:32:34;4.00;;;1.70;;
55270;SDS011;41132;47.162;9.470;2023-07-30T09:35:10;3.33;;;1.60;;
55270;SDS011;41132;47.162;9.470;2023-07-30T09:37:37;3.30;;;1.45;;
55270;SDS011;41132;47.162;9.470;2023-07-30T09:40:04;3.22;;;1.50;;
55270;SDS011;41132;47.162;9.470;2023-07-30T09:42:31;2.47;;;1.33;;
55270;SDS011;41132;47.162;9.470;2023-07-30T09:44:59;3.25;;;1.52;;
55270;SDS011;41132;47.162;9.470;2023-07-30T09:47:30;3.53;;;1.63;;
55270;SDS011;41132;47.162;9.470;2023-07-30T09:49:56;3.75;;;1.50;;
55270;SDS011;41132;47.162;9.470;2023-07-30T09:52:21;4.55;;;1.80;;
55270;SDS011;41132;47.162;9.470;2023-07-30T09:54:48;4.38;;;1.70;;
55270;SDS011;41132;47.162;9.470;2023-07-30T09:57:15;3.85;;;1.60;;
55270;SDS011;41132;47.162;9.470;2023-07-30T09:59:40;4.35;;;1.85;;
55270;SDS011;41132;47.162;9.470;2023-07-30T10:02:06;3.45;;;1.60;;
55270;SDS011;41132;47.162;9.470;2023-07-30T10:04:33;4.03;;;1.92;;
55270;SDS011;41132;47.162;9.470;2023-07-30T10:07:03;4.57;;;1.77;;
55270;SDS011;41132;47.162;9.470;2023-07-30T10:09:33;4.47;;;2.00;;
55270;SDS011;41132;47.162;9.470;2023-07-30T10:12:08;7.47;;;2.10;;
55270;SDS011;41132;47.162;9.470;2023-07-30T10:14:36;4.45;;;2.10;;
55270;SDS011;41132;47.162;9.470;2023-07-30T10:17:02;3.60;;;1.88;;
55270;SDS011;41132;47.162;9.470;2023-07-30T10:19:27;4.45;;;2.13;;
55270;SDS011;41132;47.162;9.470;2023-07-30T10:21:57;4.47;;;2.03;;
55270;SDS011;41132;47.162;9.470;2023-07-30T10:24:56;4.03;;;2.00;;
55270;SDS011;41132;47.162;9.470;2023-07-30T10:27:23;4.55;;;1.80;;
55270;SDS011;41132;47.162;9.470;2023-07-30T10:30:07;4.45;;;1.95;;
55270;SDS011;41132;47.162;9.470;2023-07-30T10:35:03;5.70;;;1.95;;
55270;SDS011;41132;47.162;9.470;2023-07-30T10:37:29;3.60;;;1.73;;
55270;SDS011;41132;47.162;9.470;2023-07-30T10:39:54;4.22;;;1.98;;
55270;SDS011;41132;47.162;9.470;2023-07-30T10:42:19;4.03;;;1.80;;
55270;SDS011;41132;47.162;9.470;2023-07-30T10:44:45;4.50;;;1.75;;
55270;SDS011;41132;47.162;9.470;2023-07-30T10:47:10;5.05;;;1.77;;
55270;SDS011;41132;47.162;9.470;2023-07-30T10:49:36;3.85;;;1.80;;
55270;SDS011;41132;47.162;9.470;2023-07-30T10:52:13;4.57;;;1.88;;
55270;SDS011;41132;47.162;9.470;2023-07-30T10:54:38;3.53;;;1.60;;
55270;SDS011;41132;47.162;9.470;2023-07-30T10:57:04;3.78;;;1.80;;
55270;SDS011;41132;47.162;9.470;2023-07-30T10:59:36;3.83;;;1.60;;
55270;SDS011;41132;47.162;9.470;2023-07-30T11:02:02;3.55;;;1.55;;
55270;SDS011;41132;47.162;9.470;2023-07-30T11:04:28;4.15;;;1.88;;
55270;SDS011;41132;47.162;9.470;2023-07-30T11:06:54;4.55;;;2.00;;
55270;SDS011;41132;47.162;9.470;2023-07-30T11:09:23;4.30;;;1.70;;
55270;SDS011;41132;47.162;9.470;2023-07-30T11:11:51;4.22;;;1.73;;
55270;SDS011;41132;47.162;9.470;2023-07-30T11:14:18;4.28;;;1.75;;
55270;SDS011;41132;47.162;9.470;2023-07-30T11:16:58;3.97;;;1.77;;
55270;SDS011;41132;47.162;9.470;2023-07-30T11:19:25;3.58;;;1.90;;
55270;SDS011;41132;47.162;9.470;2023-07-30T11:21:51;4.20;;;1.85;;
55270;SDS011;41132;47.162;9.470;2023-07-30T11:24:19;4.28;;;1.73;;
55270;SDS011;41132;47.162;9.470;2023-07-30T11:26:46;4.28;;;2.00;;
55270;SDS011;41132;47.162;9.470;2023-07-30T11:29:25;4.53;;;1.85;;
55270;SDS011;41132;47.162;9.470;2023-07-30T11:31:51;3.78;;;1.83;;
55270;SDS011;41132;47.162;9.470;2023-07-30T11:34:16;4.35;;;2.00;;
55270;SDS011;41132;47.162;9.470;2023-07-30T11:36:43;4.13;;;2.03;;
55270;SDS011;41132;47.162;9.470;2023-07-30T11:39:09;4.47;;;2.10;;
55270;SDS011;41132;47.162;9.470;2023-07-30T11:41:35;4.43;;;2.13;;
55270;SDS011;41132;47.162;9.470;2023-07-30T11:44:02;4.38;;;1.85;;
55270;SDS011;41132;47.162;9.470;2023-07-30T11:46:28;3.10;;;1.40;;
55270;SDS011;41132;47.162;9.470;2023-07-30T11:49:10;3.70;;;1.73;;
55270;SDS011;41132;47.162;9.470;2023-07-30T11:51:42;3.15;;;1.50;;
55270;SDS011;41132;47.162;9.470;2023-07-30T11:54:17;3.10;;;1.40;;
55270;SDS011;41132;47.162;9.470;2023-07-30T11:56:44;2.70;;;1.10;;
55270;SDS011;41132;47.162;9.470;2023-07-30T11:59:10;3.85;;;1.88;;
55270;SDS011;41132;47.162;9.470;2023-07-30T12:01:35;2.97;;;1.50;;
55270;SDS011;41132;47.162;9.470;2023-07-30T12:04:05;3.47;;;1.52;;
55270;SDS011;41132;47.162;9.470;2023-07-30T12:06:37;2.53;;;1.30;;
55270;SDS011;41132;47.162;9.470;2023-07-30T12:09:14;2.85;;;1.38;;
55270;SDS011;41132;47.162;9.470;2023-07-30T12:11:46;3.35;;;1.40;;
55270;SDS011;41132;47.162;9.470;2023-07-30T12:14:12;2.75;;;1.20;;
55270;SDS011;41132;47.162;9.470;2023-07-30T12:16:37;2.33;;;1.10;;
55270;SDS011;41132;47.162;9.470;2023-07-30T12:19:03;3.00;;;1.25;;
55270;SDS011;41132;47.162;9.470;2023-07-30T12:21:29;3.13;;;1.27;;
55270;SDS011;41132;47.162;9.470;2023-07-30T12:23:54;2.45;;;0.98;;
55270;SDS011;41132;47.162;9.470;2023-07-30T12:26:19;2.42;;;1.10;;
55270;SDS011;41132;47.162;9.470;2023-07-30T12:28:45;2.92;;;1.20;;
55270;SDS011;41132;47.162;9.470;2023-07-30T12:31:10;2.83;;;1.23;;
55270;SDS011;41132;47.162;9.470;2023-07-30T12:33:36;2.45;;;1.30;;
55270;SDS011;41132;47.162;9.470;2023-07-30T12:36:01;2.35;;;1.10;;
55270;SDS011;41132;47.162;9.470;2023-07-30T12:38:27;3.17;;;1.30;;
55270;SDS011;41132;47.162;9.470;2023-07-30T12:40:52;2.05;;;1.00;;
55270;SDS011;41132;47.162;9.470;2023-07-30T12:43:17;2.70;;;1.27;;
55270;SDS011;41132;47.162;9.470;2023-07-30T12:45:49;3.50;;;1.30;;
55270;SDS011;41132;47.162;9.470;2023-07-30T12:48:14;3.15;;;1.30;;
55270;SDS011;41132;47.162;9.470;2023-07-30T12:50:40;3.72;;;1.63;;
55270;SDS011;41132;47.162;9.470;2023-07-30T12:53:05;3.25;;;1.45;;
55270;SDS011;41132;47.162;9.470;2023-07-30T12:55:30;3.22;;;1.35;;
55270;SDS011;41132;47.162;9.470;2023-07-30T12:57:56;3.60;;;1.50;;
55270;SDS011;41132;47.162;9.470;2023-07-30T13:00:21;3.58;;;1.45;;
55270;SDS011;41132;47.162;9.470;2023-07-30T13:02:48;3.20;;;1.33;;
55270;SDS011;41132;47.162;9.470;2023-07-30T13:05:15;2.47;;;1.13;;
55270;SDS011;41132;47.162;9.470;2023-07-30T13:07:41;2.83;;;1.23;;
55270;SDS011;41132;47.162;9.470;2023-07-30T13:10:07;3.55;;;1.42;;
55270;SDS011;41132;47.162;9.470;2023-07-30T13:12:33;3.45;;;1.30;;
55270;SDS011;41132;47.162;9.470;2023-07-30T13:14:59;2.42;;;1.10;;
55270;SDS011;41132;47.162;9.470;2023-07-30T13:17:25;2.90;;;1.42;;
55270;SDS011;41132;47.162;9.470;2023-07-30T13:19:50;3.10;;;1.48;;
55270;SDS011;41132;47.162;9.470;2023-07-30T13:22:16;3.70;;;1.60;;
55270;SDS011;41132;47.162;9.470;2023-07-30T13:24:41;3.30;;;1.50;;
55270;SDS011;41132;47.162;9.470;2023-07-30T13:27:07;3.97;;;1.70;;
55270;SDS011;41132;47.162;9.470;2023-07-30T13:29:32;3.30;;;1.30;;
55270;SDS011;41132;47.162;9.470;2023-07-30T13:31:57;2.83;;;1.30;;
55270;SDS011;41132;47.162;9.470;2023-07-30T13:34:23;3.05;;;1.48;;
55270;SDS011;41132;47.162;9.470;2023-07-30T13:36:49;2.92;;;1.40;;
55270;SDS011;41132;47.162;9.470;2023-07-30T13:39:14;4.25;;;1.60;;
55270;SDS011;41132;47.162;9.470;2023-07-30T13:41:40;2.92;;;1.30;;
55270;SDS011;41132;47.162;9.470;2023-07-30T13:44:05;3.90;;;1.40;;
55270;SDS011;41132;47.162;9.470;2023-07-30T13:46:30;3.83;;;1.63;;
55270;SDS011;41132;47.162;9.470;2023-07-30T13:48:56;2.60;;;1.35;;
55270;SDS011;41132;47.162;9.470;2023-07-30T13:51:21;3.22;;;1.45;;
55270;SDS011;41132;47.162;9.470;2023-07-30T13:53:47;3.72;;;1.38;;
55270;SDS011;41132;47.162;9.470;2023-07-30T13:56:12;4.07;;;1.40;;
55270;SDS011;41132;47.162;9.470;2023-07-30T13:58:37;3.10;;;1.40;;
55270;SDS011;41132;47.162;9.470;2023-07-30T14:01:04;4.00;;;1.50;;
55270;SDS011;41132;47.162;9.470;2023-07-30T14:03:31;3.47;;;1.67;;
55270;SDS011;41132;47.162;9.470;2023-07-30T14:05:57;2.83;;;1.40;;
55270;SDS011;41132;47.162;9.470;2023-07-30T14:08:22;2.70;;;1.30;;
55270;SDS011;41132;47.162;9.470;2023-07-30T14:10:48;2.97;;;1.25;;
55270;SDS011;41132;47.162;9.470;2023-07-30T14:13:13;3.15;;;1.50;;
55270;SDS011;41132;47.162;9.470;2023-07-30T14:15:38;4.07;;;1.67;;
55270;SDS011;41132;47.162;9.470;2023-07-30T14:18:04;3.85;;;1.70;;
55270;SDS011;41132;47.162;9.470;2023-07-30T14:20:29;4.75;;;1.70;;
55270;SDS011;41132;47.162;9.470;2023-07-30T14:22:55;3.95;;;1.80;;
55270;SDS011;41132;47.162;9.470;2023-07-30T14:25:20;2.95;;;1.58;;
55270;SDS011;41132;47.162;9.470;2023-07-30T14:27:45;3.95;;;1.85;;
55270;SDS011;41132;47.162;9.470;2023-07-30T14:30:11;4.53;;;1.85;;
55270;SDS011;41132;47.162;9.470;2023-07-30T14:32:36;4.68;;;1.80;;
55270;SDS011;41132;47.162;9.470;2023-07-30T14:35:02;4.25;;;2.00;;
55270;SDS011;41132;47.162;9.470;2023-07-30T14:37:27;3.83;;;1.42;;
55270;SDS011;41132;47.162;9.470;2023-07-30T14:39:53;3.25;;;1.48;;
55270;SDS011;41132;47.162;9.470;2023-07-30T14:42:18;2.92;;;1.50;;
55270;SDS011;41132;47.162;9.470;2023-07-30T14:44:43;5.07;;;1.80;;